sensor_id;sensor_type;location;lat;lon;timestamp;P1;durP1;ratioP1;P2;durP2;ratioP2
19004;SDS011;9635;52.078;8.648;2023-05-13T00:04:07;11.25;;;5.97;;
19004;SDS011;9635;52.078;8.648;2023-05-13T00:09:12;8.73;;;5.82;;
19004;SDS011;9635;52.078;8.648;2023-05-13T00:14:14;8.68;;;5.97;;
19004;SDS011;9635;52.078;8.648;2023-05-13T00:19:17;10.68;;;6.68;;
19004;SDS011;9635;52.078;8.648;2023-05-13T00:24:21;7.88;;;6.00;;
19004;SDS011;9635;52.078;8.648;2023-05-13T00:29:24;12.13;;;6.68;;
19004;SDS011;9635;52.078;8.648;2023-05-13T00:34:27;8.77;;;7.00;;
19004;SDS011;9635;52.078;8.648;2023-05-13T00:45:02;10.27;;;8.23;;
19004;SDS011;9635;52.078;8.648;2023-05-13T00:50:05;11.02;;;8.30;;
19004;SDS011;9635;52.078;8.648;2023-05-13T00:55:09;10.75;;;8.15;;
19004;SDS011;9635;52.078;8.648;2023-05-13T01:00:14;13.07;;;9.13;;
19004;SDS011;9635;52.078;8.648;2023-05-13T01:10:40;12.32;;;9.07;;
19004;SDS011;9635;52.078;8.648;2023-05-13T01:15:52;11.00;;;8.48;;
19004;SDS011;9635;52.078;8.648;2023-05-13T01:20:59;10.93;;;8.82;;
19004;SDS011;9635;52.078;8.648;2023-05-13T01:26:04;10.85;;;8.10;;
19004;SDS011;9635;52.078;8.648;2023-05-13T01:31:07;8.75;;;7.85;;
19004;SDS011;9635;52.078;8.648;2023-05-13T01:36:11;10.18;;;8.40;;
19004;SDS011;9635;52.078;8.648;2023-05-13T01:41:16;9.45;;;8.35;;
19004;SDS011;9635;52.078;8.648;2023-05-13T01:46:19;10.32;;;7.57;;
19004;SDS011;9635;52.078;8.648;2023-05-13T01:51:22;10.80;;;7.38;;
19004;SDS011;9635;52.078;8.648;2023-05-13T01:56:26;11.68;;;7.57;;
19004;SDS011;9635;52.078;8.648;2023-05-13T02:01:29;14.00;;;7.07;;
19004;SDS011;9635;52.078;8.648;2023-05-13T02:06:31;8.85;;;7.53;;
19004;SDS011;9635;52.078;8.648;2023-05-13T02:11:36;11.88;;;7.57;;
19004;SDS011;9635;52.078;8.648;2023-05-13T02:16:39;10.93;;;8.15;;
19004;SDS011;9635;52.078;8.648;2023-05-13T02:21:41;10.60;;;8.43;;
19004;SDS011;9635;52.078;8.648;2023-05-13T02:26:46;12.48;;;9.00;;
19004;SDS011;9635;52.078;8.648;2023-05-13T02:31:48;11.65;;;8.82;;
19004;SDS011;9635;52.078;8.648;2023-05-13T02:36:52;11.73;;;9.48;;
19004;SDS011;9635;52.078;8.648;2023-05-13T02:41:56;10.05;;;9.05;;
19004;SDS011;9635;52.078;8.648;2023-05-13T02:47:05;10.65;;;9.48;;
19004;SDS011;9635;52.078;8.648;2023-05-13T02:52:08;10.25;;;8.57;;
19004;SDS011;9635;52.078;8.648;2023-05-13T02:57:12;15.55;;;9.38;;
19004;SDS011;9635;52.078;8.648;2023-05-13T03:02:16;12.15;;;9.23;;
19004;SDS011;9635;52.078;8.648;2023-05-13T03:07:19;14.45;;;9.98;;
19004;SDS011;9635;52.078;8.648;2023-05-13T03:12:23;14.65;;;9.10;;
19004;SDS011;9635;52.078;8.648;2023-05-13T03:17:26;12.75;;;8.95;;
19004;SDS011;9635;52.078;8.648;2023-05-13T03:22:31;10.95;;;9.15;;
19004;SDS011;9635;52.078;8.648;2023-05-13T03:27:36;11.13;;;9.15;;
19004;SDS011;9635;52.078;8.648;2023-05-13T03:32:42;14.52;;;10.02;;
19004;SDS011;9635;52.078;8.648;2023-05-13T03:37:46;11.13;;;9.05;;
19004;SDS011;9635;52.078;8.648;2023-05-13T03:42:51;11.43;;;9.57;;
19004;SDS011;9635;52.078;8.648;2023-05-13T03:47:56;11.68;;;9.50;;
19004;SDS011;9635;52.078;8.648;2023-05-13T03:53:00;12.10;;;9.63;;
19004;SDS011;9635;52.078;8.648;2023-05-13T03:58:11;11.93;;;8.77;;
19004;SDS011;9635;52.078;8.648;2023-05-13T04:03:14;11.60;;;8.68;;
19004;SDS011;9635;52.078;8.648;2023-05-13T04:08:18;12.80;;;8.93;;
19004;SDS011;9635;52.078;8.648;2023-05-13T04:13:22;13.52;;;8.90;;
19004;SDS011;9635;52.078;8.648;2023-05-13T04:18:25;14.07;;;9.02;;
19004;SDS011;9635;52.078;8.648;2023-05-13T04:23:28;11.30;;;9.30;;
19004;SDS011;9635;52.078;8.648;2023-05-13T04:28:32;14.35;;;9.30;;
19004;SDS011;9635;52.078;8.648;2023-05-13T04:33:35;10.70;;;9.48;;
19004;SDS011;9635;52.078;8.648;2023-05-13T04:38:38;14.43;;;9.32;;
19004;SDS011;9635;52.078;8.648;2023-05-13T04:43:42;12.25;;;9.00;;
19004;SDS011;9635;52.078;8.648;2023-05-13T04:48:46;13.30;;;9.80;;
19004;SDS011;9635;52.078;8.648;2023-05-13T04:53:49;14.60;;;8.40;;
19004;SDS011;9635;52.078;8.648;2023-05-13T04:58:55;13.75;;;8.60;;
19004;SDS011;9635;52.078;8.648;2023-05-13T05:03:59;13.32;;;8.55;;
19004;SDS011;9635;52.078;8.648;2023-05-13T05:09:03;11.00;;;8.02;;
19004;SDS011;9635;52.078;8.648;2023-05-13T05:14:07;14.50;;;9.20;;
19004;SDS011;9635;52.078;8.648;2023-05-13T05:19:10;10.57;;;8.48;;
19004;SDS011;9635;52.078;8.648;2023-05-13T05:24:14;12.77;;;9.05;;
19004;SDS011;9635;52.078;8.648;2023-05-13T05:29:18;11.02;;;9.85;;
19004;SDS011;9635;52.078;8.648;2023-05-13T05:34:21;13.60;;;9.60;;
19004;SDS011;9635;52.078;8.648;2023-05-13T05:39:24;13.65;;;8.48;;
19004;SDS011;9635;52.078;8.648;2023-05-13T05:44:28;11.05;;;8.60;;
19004;SDS011;9635;52.078;8.648;2023-05-13T05:49:31;14.18;;;9.20;;
19004;SDS011;9635;52.078;8.648;2023-05-13T05:54:34;11.98;;;8.45;;
19004;SDS011;9635;52.078;8.648;2023-05-13T05:59:38;9.68;;;7.63;;
19004;SDS011;9635;52.078;8.648;2023-05-13T06:04:41;8.85;;;7.75;;
19004;SDS011;9635;52.078;8.648;2023-05-13T06:09:44;15.93;;;8.55;;
19004;SDS011;9635;52.078;8.648;2023-05-13T06:14:49;10.98;;;8.00;;
19004;SDS011;9635;52.078;8.648;2023-05-13T06:19:51;10.40;;;7.85;;
19004;SDS011;9635;52.078;8.648;2023-05-13T06:24:54;8.60;;;7.55;;
19004;SDS011;9635;52.078;8.648;2023-05-13T06:29:59;12.68;;;7.38;;
19004;SDS011;9635;52.078;8.648;2023-05-13T06:35:02;8.45;;;5.15;;
19004;SDS011;9635;52.078;8.648;2023-05-13T06:40:05;14.93;;;6.35;;
19004;SDS011;9635;52.078;8.648;2023-05-13T06:45:15;10.02;;;7.68;;
19004;SDS011;9635;52.078;8.648;2023-05-13T06:50:19;10.65;;;7.43;;
19004;SDS011;9635;52.078;8.648;2023-05-13T06:55:23;12.70;;;8.18;;
19004;SDS011;9635;52.078;8.648;2023-05-13T07:00:27;9.38;;;7.40;;
19004;SDS011;9635;52.078;8.648;2023-05-13T07:05:30;9.07;;;7.25;;
19004;SDS011;9635;52.078;8.648;2023-05-13T07:10:33;7.97;;;7.07;;
19004;SDS011;9635;52.078;8.648;2023-05-13T07:15:38;9.13;;;7.07;;
19004;SDS011;9635;52.078;8.648;2023-05-13T07:20:41;9.25;;;6.40;;
19004;SDS011;9635;52.078;8.648;2023-05-13T07:25:44;10.65;;;6.82;;
19004;SDS011;9635;52.078;8.648;2023-05-13T07:30:48;10.38;;;6.25;;
19004;SDS011;9635;52.078;8.648;2023-05-13T07:35:53;8.25;;;5.85;;
19004;SDS011;9635;52.078;8.648;2023-05-13T07:40:56;8.30;;;5.93;;
19004;SDS011;9635;52.078;8.648;2023-05-13T07:46:00;11.05;;;6.40;;
19004;SDS011;9635;52.078;8.648;2023-05-13T07:51:04;7.60;;;5.72;;
19004;SDS011;9635;52.078;8.648;2023-05-13T07:56:07;7.53;;;5.78;;
19004;SDS011;9635;52.078;8.648;2023-05-13T08:01:11;8.27;;;5.82;;
19004;SDS011;9635;52.078;8.648;2023-05-13T08:06:14;6.43;;;5.03;;
19004;SDS011;9635;52.078;8.648;2023-05-13T08:11:17;6.45;;;5.75;;
19004;SDS011;9635;52.078;8.648;2023-05-13T08:16:28;9.82;;;5.90;;
19004;SDS011;9635;52.078;8.648;2023-05-13T08:21:31;6.05;;;5.13;;
19004;SDS011;9635;52.078;8.648;2023-05-13T08:26:34;7.53;;;6.18;;
19004;SDS011;9635;52.078;8.648;2023-05-13T08:31:38;7.25;;;5.10;;
19004;SDS011;9635;52.078;8.648;2023-05-13T08:36:41;5.25;;;4.70;;
19004;SDS011;9635;52.078;8.648;2023-05-13T08:41:44;7.90;;;4.63;;
19004;SDS011;9635;52.078;8.648;2023-05-13T08:46:49;4.57;;;4.15;;
19004;SDS011;9635;52.078;8.648;2023-05-13T08:51:59;7.05;;;4.70;;
19004;SDS011;9635;52.078;8.648;2023-05-13T08:57:03;5.00;;;4.38;;
19004;SDS011;9635;52.078;8.648;2023-05-13T09:02:08;6.13;;;4.90;;
19004;SDS011;9635;52.078;8.648;2023-05-13T09:07:11;7.95;;;4.53;;
19004;SDS011;9635;52.078;8.648;2023-05-13T09:17:57;10.38;;;5.13;;
19004;SDS011;9635;52.078;8.648;2023-05-13T09:23:01;6.13;;;4.55;;
19004;SDS011;9635;52.078;8.648;2023-05-13T09:28:06;5.68;;;4.38;;
19004;SDS011;9635;52.078;8.648;2023-05-13T09:33:11;5.10;;;4.60;;
19004;SDS011;9635;52.078;8.648;2023-05-13T09:38:16;4.88;;;4.40;;
19004;SDS011;9635;52.078;8.648;2023-05-13T09:43:20;9.00;;;4.45;;
19004;SDS011;9635;52.078;8.648;2023-05-13T09:48:25;5.15;;;4.28;;
19004;SDS011;9635;52.078;8.648;2023-05-13T09:53:29;9.25;;;4.38;;
19004;SDS011;9635;52.078;8.648;2023-05-13T09:58:32;8.40;;;4.53;;
19004;SDS011;9635;52.078;8.648;2023-05-13T10:03:37;8.88;;;3.92;;
19004;SDS011;9635;52.078;8.648;2023-05-13T10:08:40;9.80;;;4.78;;
19004;SDS011;9635;52.078;8.648;2023-05-13T10:13:44;5.65;;;3.97;;
19004;SDS011;9635;52.078;8.648;2023-05-13T10:18:53;5.00;;;4.03;;
19004;SDS011;9635;52.078;8.648;2023-05-13T10:23:57;6.78;;;4.10;;
19004;SDS011;9635;52.078;8.648;2023-05-13T10:29:02;6.28;;;4.47;;
19004;SDS011;9635;52.078;8.648;2023-05-13T10:34:06;6.40;;;4.68;;
19004;SDS011;9635;52.078;8.648;2023-05-13T10:44:50;7.03;;;4.47;;
19004;SDS011;9635;52.078;8.648;2023-05-13T10:49:57;11.68;;;5.20;;
19004;SDS011;9635;52.078;8.648;2023-05-13T10:55:05;5.78;;;4.15;;
19004;SDS011;9635;52.078;8.648;2023-05-13T11:05:22;6.40;;;4.88;;
19004;SDS011;9635;52.078;8.648;2023-05-13T11:10:25;6.72;;;4.85;;
19004;SDS011;9635;52.078;8.648;2023-05-13T11:15:41;5.40;;;4.90;;
19004;SDS011;9635;52.078;8.648;2023-05-13T11:20:50;5.32;;;4.80;;
19004;SDS011;9635;52.078;8.648;2023-05-13T11:26:10;5.97;;;5.38;;
19004;SDS011;9635;52.078;8.648;2023-05-13T11:31:16;9.73;;;5.60;;
19004;SDS011;9635;52.078;8.648;2023-05-13T11:36:20;7.25;;;5.00;;
19004;SDS011;9635;52.078;8.648;2023-05-13T11:41:23;4.82;;;4.35;;
19004;SDS011;9635;52.078;8.648;2023-05-13T11:46:26;7.60;;;4.82;;
19004;SDS011;9635;52.078;8.648;2023-05-13T11:51:30;7.43;;;4.60;;
19004;SDS011;9635;52.078;8.648;2023-05-13T11:56:35;4.95;;;4.45;;
19004;SDS011;9635;52.078;8.648;2023-05-13T12:01:38;6.32;;;4.30;;
19004;SDS011;9635;52.078;8.648;2023-05-13T12:06:45;7.80;;;4.10;;
19004;SDS011;9635;52.078;8.648;2023-05-13T12:11:48;6.82;;;3.85;;
19004;SDS011;9635;52.078;8.648;2023-05-13T12:16:52;4.30;;;3.83;;
19004;SDS011;9635;52.078;8.648;2023-05-13T12:21:57;5.65;;;3.75;;
19004;SDS011;9635;52.078;8.648;2023-05-13T12:27:04;6.57;;;3.30;;
19004;SDS011;9635;52.078;8.648;2023-05-13T12:32:11;7.07;;;3.80;;
19004;SDS011;9635;52.078;8.648;2023-05-13T12:37:19;6.65;;;3.67;;
19004;SDS011;9635;52.078;8.648;2023-05-13T12:42:26;4.95;;;3.38;;
19004;SDS011;9635;52.078;8.648;2023-05-13T12:47:29;16.50;;;4.53;;
19004;SDS011;9635;52.078;8.648;2023-05-13T12:52:33;4.10;;;3.70;;
19004;SDS011;9635;52.078;8.648;2023-05-13T12:57:36;9.05;;;4.18;;
19004;SDS011;9635;52.078;8.648;2023-05-13T13:02:39;4.45;;;3.33;;
19004;SDS011;9635;52.078;8.648;2023-05-13T13:07:44;5.57;;;3.63;;
19004;SDS011;9635;52.078;8.648;2023-05-13T13:12:47;4.30;;;3.45;;
19004;SDS011;9635;52.078;8.648;2023-05-13T13:17:50;4.03;;;3.60;;
19004;SDS011;9635;52.078;8.648;2023-05-13T13:22:54;11.02;;;5.00;;
19004;SDS011;9635;52.078;8.648;2023-05-13T13:27:57;4.95;;;3.03;;
19004;SDS011;9635;52.078;8.648;2023-05-13T13:33:00;5.70;;;3.47;;
19004;SDS011;9635;52.078;8.648;2023-05-13T13:38:04;10.77;;;3.70;;
19004;SDS011;9635;52.078;8.648;2023-05-13T13:43:08;6.35;;;3.85;;
19004;SDS011;9635;52.078;8.648;2023-05-13T13:48:11;6.65;;;4.25;;
19004;SDS011;9635;52.078;8.648;2023-05-13T13:53:16;6.28;;;3.25;;
19004;SDS011;9635;52.078;8.648;2023-05-13T13:58:18;3.65;;;3.35;;
19004;SDS011;9635;52.078;8.648;2023-05-13T14:03:22;6.15;;;3.55;;
19004;SDS011;9635;52.078;8.648;2023-05-13T14:08:26;4.82;;;3.97;;
19004;SDS011;9635;52.078;8.648;2023-05-13T14:13:29;5.00;;;3.72;;
19004;SDS011;9635;52.078;8.648;2023-05-13T14:18:32;5.35;;;3.28;;
19004;SDS011;9635;52.078;8.648;2023-05-13T14:23:36;5.57;;;3.80;;
19004;SDS011;9635;52.078;8.648;2023-05-13T14:28:42;7.13;;;3.53;;
19004;SDS011;9635;52.078;8.648;2023-05-13T14:33:45;5.85;;;3.60;;
19004;SDS011;9635;52.078;8.648;2023-05-13T14:38:50;6.05;;;3.13;;
19004;SDS011;9635;52.078;8.648;2023-05-13T14:43:52;7.05;;;3.40;;
19004;SDS011;9635;52.078;8.648;2023-05-13T14:48:55;6.32;;;2.83;;
19004;SDS011;9635;52.078;8.648;2023-05-13T14:53:59;4.30;;;3.55;;
19004;SDS011;9635;52.078;8.648;2023-05-13T14:59:02;5.05;;;3.38;;
19004;SDS011;9635;52.078;8.648;2023-05-13T15:04:05;6.47;;;3.20;;
19004;SDS011;9635;52.078;8.648;2023-05-13T15:09:09;4.88;;;3.10;;
19004;SDS011;9635;52.078;8.648;2023-05-13T15:14:12;6.25;;;3.15;;
19004;SDS011;9635;52.078;8.648;2023-05-13T15:19:16;4.28;;;3.40;;
19004;SDS011;9635;52.078;8.648;2023-05-13T15:24:21;6.68;;;3.67;;
19004;SDS011;9635;52.078;8.648;2023-05-13T15:29:24;6.30;;;4.13;;
19004;SDS011;9635;52.078;8.648;2023-05-13T15:34:26;8.63;;;3.33;;
19004;SDS011;9635;52.078;8.648;2023-05-13T15:39:31;6.65;;;3.63;;
19004;SDS011;9635;52.078;8.648;2023-05-13T15:44:33;5.15;;;3.60;;
19004;SDS011;9635;52.078;8.648;2023-05-13T15:49:36;4.03;;;3.63;;
19004;SDS011;9635;52.078;8.648;2023-05-13T15:54:40;5.70;;;3.50;;
19004;SDS011;9635;52.078;8.648;2023-05-13T15:59:43;4.70;;;3.20;;
19004;SDS011;9635;52.078;8.648;2023-05-13T16:04:46;4.15;;;3.50;;
19004;SDS011;9635;52.078;8.648;2023-05-13T16:09:50;3.75;;;3.25;;
19004;SDS011;9635;52.078;8.648;2023-05-13T16:14:53;6.15;;;3.08;;
19004;SDS011;9635;52.078;8.648;2023-05-13T16:19:55;3.60;;;3.30;;
19004;SDS011;9635;52.078;8.648;2023-05-13T16:25:02;3.83;;;3.03;;
19004;SDS011;9635;52.078;8.648;2023-05-13T16:30:06;4.10;;;3.72;;
19004;SDS011;9635;52.078;8.648;2023-05-13T16:35:10;5.50;;;3.08;;
19004;SDS011;9635;52.078;8.648;2023-05-13T16:40:14;6.68;;;3.40;;
19004;SDS011;9635;52.078;8.648;2023-05-13T16:45:17;4.22;;;3.40;;
19004;SDS011;9635;52.078;8.648;2023-05-13T16:50:21;4.80;;;3.05;;
19004;SDS011;9635;52.078;8.648;2023-05-13T16:55:26;7.47;;;3.97;;
19004;SDS011;9635;52.078;8.648;2023-05-13T17:00:28;7.00;;;3.67;;
19004;SDS011;9635;52.078;8.648;2023-05-13T17:05:31;5.80;;;3.60;;
19004;SDS011;9635;52.078;8.648;2023-05-13T17:10:38;6.57;;;4.13;;
19004;SDS011;9635;52.078;8.648;2023-05-13T17:15:40;12.80;;;9.40;;
19004;SDS011;9635;52.078;8.648;2023-05-13T17:20:43;5.32;;;3.95;;
19004;SDS011;9635;52.078;8.648;2023-05-13T17:25:48;5.78;;;3.40;;
19004;SDS011;9635;52.078;8.648;2023-05-13T17:30:51;7.78;;;3.90;;
19004;SDS011;9635;52.078;8.648;2023-05-13T17:35:54;6.93;;;2.92;;
19004;SDS011;9635;52.078;8.648;2023-05-13T17:40:58;6.05;;;2.72;;
19004;SDS011;9635;52.078;8.648;2023-05-13T17:46:01;3.67;;;2.70;;
19004;SDS011;9635;52.078;8.648;2023-05-13T17:51:04;9.07;;;3.45;;
19004;SDS011;9635;52.078;8.648;2023-05-13T17:56:08;4.30;;;2.78;;
19004;SDS011;9635;52.078;8.648;2023-05-13T18:01:11;3.22;;;2.70;;
19004;SDS011;9635;52.078;8.648;2023-05-13T18:06:14;4.47;;;2.67;;
19004;SDS011;9635;52.078;8.648;2023-05-13T18:11:18;6.03;;;2.70;;
19004;SDS011;9635;52.078;8.648;2023-05-13T18:16:22;4.38;;;2.67;;
19004;SDS011;9635;52.078;8.648;2023-05-13T18:21:25;4.95;;;2.88;;
19004;SDS011;9635;52.078;8.648;2023-05-13T18:26:30;4.47;;;2.75;;
19004;SDS011;9635;52.078;8.648;2023-05-13T18:31:33;7.25;;;3.00;;
19004;SDS011;9635;52.078;8.648;2023-05-13T18:36:36;5.00;;;2.88;;
19004;SDS011;9635;52.078;8.648;2023-05-13T18:41:40;7.03;;;4.28;;
19004;SDS011;9635;52.078;8.648;2023-05-13T18:46:43;9.32;;;4.00;;
19004;SDS011;9635;52.078;8.648;2023-05-13T18:51:46;13.80;;;5.32;;
19004;SDS011;9635;52.078;8.648;2023-05-13T18:56:50;7.60;;;4.15;;
19004;SDS011;9635;52.078;8.648;2023-05-13T19:01:53;4.20;;;3.80;;
19004;SDS011;9635;52.078;8.648;2023-05-13T19:06:56;4.72;;;3.40;;
19004;SDS011;9635;52.078;8.648;2023-05-13T19:12:00;6.70;;;3.20;;
19004;SDS011;9635;52.078;8.648;2023-05-13T19:17:03;4.00;;;3.03;;
19004;SDS011;9635;52.078;8.648;2023-05-13T19:22:06;3.90;;;3.30;;
19004;SDS011;9635;52.078;8.648;2023-05-13T19:27:10;8.05;;;4.20;;
19004;SDS011;9635;52.078;8.648;2023-05-13T19:32:13;8.05;;;3.95;;
19004;SDS011;9635;52.078;8.648;2023-05-13T19:37:16;5.32;;;4.10;;
19004;SDS011;9635;52.078;8.648;2023-05-13T19:42:21;9.90;;;4.38;;
19004;SDS011;9635;52.078;8.648;2023-05-13T19:47:24;7.90;;;4.07;;
19004;SDS011;9635;52.078;8.648;2023-05-13T19:52:27;5.80;;;5.20;;
19004;SDS011;9635;52.078;8.648;2023-05-13T19:57:32;8.70;;;5.05;;
19004;SDS011;9635;52.078;8.648;2023-05-13T20:02:35;10.50;;;5.05;;
19004;SDS011;9635;52.078;8.648;2023-05-13T20:07:38;6.10;;;4.05;;
19004;SDS011;9635;52.078;8.648;2023-05-13T20:12:43;5.70;;;3.42;;
19004;SDS011;9635;52.078;8.648;2023-05-13T20:17:46;6.80;;;4.28;;
19004;SDS011;9635;52.078;8.648;2023-05-13T20:22:49;5.68;;;3.63;;
19004;SDS011;9635;52.078;8.648;2023-05-13T20:27:53;9.18;;;5.00;;
19004;SDS011;9635;52.078;8.648;2023-05-13T20:32:55;5.35;;;4.80;;
19004;SDS011;9635;52.078;8.648;2023-05-13T20:37:59;5.43;;;4.40;;
19004;SDS011;9635;52.078;8.648;2023-05-13T20:43:03;5.28;;;3.60;;
19004;SDS011;9635;52.078;8.648;2023-05-13T20:48:08;5.65;;;4.90;;
19004;SDS011;9635;52.078;8.648;2023-05-13T20:53:11;7.22;;;4.55;;
19004;SDS011;9635;52.078;8.648;2023-05-13T20:58:15;7.10;;;4.70;;
19004;SDS011;9635;52.078;8.648;2023-05-13T21:03:18;5.60;;;4.80;;
19004;SDS011;9635;52.078;8.648;2023-05-13T21:08:21;10.48;;;5.95;;
19004;SDS011;9635;52.078;8.648;2023-05-13T21:13:25;7.88;;;5.63;;
19004;SDS011;9635;52.078;8.648;2023-05-13T21:18:28;10.80;;;5.93;;
19004;SDS011;9635;52.078;8.648;2023-05-13T21:23:31;6.63;;;4.55;;
19004;SDS011;9635;52.078;8.648;2023-05-13T21:28:37;7.72;;;5.57;;
19004;SDS011;9635;52.078;8.648;2023-05-13T21:33:40;7.30;;;5.20;;
19004;SDS011;9635;52.078;8.648;2023-05-13T21:38:42;8.45;;;5.85;;
19004;SDS011;9635;52.078;8.648;2023-05-13T21:43:46;10.50;;;5.10;;
19004;SDS011;9635;52.078;8.648;2023-05-13T21:48:49;9.02;;;5.90;;
19004;SDS011;9635;52.078;8.648;2023-05-13T21:53:52;11.32;;;5.63;;
19004;SDS011;9635;52.078;8.648;2023-05-13T21:58:56;5.93;;;5.32;;
19004;SDS011;9635;52.078;8.648;2023-05-13T22:03:59;9.07;;;6.18;;
19004;SDS011;9635;52.078;8.648;2023-05-13T22:09:02;13.10;;;7.32;;
19004;SDS011;9635;52.078;8.648;2023-05-13T22:14:06;7.80;;;7.00;;
19004;SDS011;9635;52.078;8.648;2023-05-13T22:19:09;9.52;;;7.38;;
19004;SDS011;9635;52.078;8.648;2023-05-13T22:24:12;9.48;;;7.97;;
19004;SDS011;9635;52.078;8.648;2023-05-13T22:29:16;10.00;;;6.40;;
19004;SDS011;9635;52.078;8.648;2023-05-13T22:34:19;12.65;;;6.55;;
19004;SDS011;9635;52.078;8.648;2023-05-13T22:39:22;8.27;;;6.93;;
19004;SDS011;9635;52.078;8.648;2023-05-13T22:44:26;13.30;;;8.80;;
19004;SDS011;9635;52.078;8.648;2023-05-13T22:49:28;10.82;;;8.90;;
19004;SDS011;9635;52.078;8.648;2023-05-13T22:54:31;15.90;;;10.35;;
19004;SDS011;9635;52.078;8.648;2023-05-13T22:59:35;10.75;;;8.95;;
19004;SDS011;9635;52.078;8.648;2023-05-13T23:04:38;11.27;;;8.98;;
19004;SDS011;9635;52.078;8.648;2023-05-13T23:09:41;11.43;;;8.32;;
19004;SDS011;9635;52.078;8.648;2023-05-13T23:14:45;11.05;;;8.52;;
19004;SDS011;9635;52.078;8.648;2023-05-13T23:19:48;14.48;;;8.43;;
19004;SDS011;9635;52.078;8.648;2023-05-13T23:24:50;13.60;;;8.30;;
19004;SDS011;9635;52.078;8.648;2023-05-13T23:29:54;10.32;;;8.57;;
19004;SDS011;9635;52.078;8.648;2023-05-13T23:34:57;9.98;;;8.27;;
19004;SDS011;9635;52.078;8.648;2023-05-13T23:40:00;11.23;;;8.75;;
19004;SDS011;9635;52.078;8.648;2023-05-13T23:45:05;11.07;;;8.93;;
19004;SDS011;9635;52.078;8.648;2023-05-13T23:50:08;11.25;;;9.00;;
19004;SDS011;9635;52.078;8.648;2023-05-13T23:55:12;9.57;;;7.28;;
